Long Lake, MI (48743)

3:20 AM EDT on September 27, 2016 (GMT -0400)
Rose Township | | Change Station

Elev 922 ft 44.43 °N, 84.01 °W | Updated 4 seconds ago

Clear
Clear
46.6 °F
Feels Like 46 °F
N
3.1
Wind Variable Wind from East
Gusts 5.4 mph

Today
High -- | Low -- °F
--% Chance of Precip.
Yesterday
High -- | Low -- °F
Precip. -- in
Pressure 29.71 in
Visibility 10.0 miles
Clouds Clear
Windchill 46 °F
Dew Point 46 °F
Humidity 99%
Rainfall 0.00 in
Snow Depth Not available.
7:29 AM 7:22 PM
Waning Crescent, 13% visible
METAR KOSC 270714Z AUTO 21009G15KT 10SM CLR 10/06 A2971 RMK AO2 T01000057
Pressure 29.71 in
Visibility 10.0 miles
Clouds Clear
Windchill 46 °F
Dew Point 46 °F
Humidity 99%
Rainfall 0.00 in
Snow Depth Not available.
7:29 AM 7:22 PM
Waning Crescent, 13% visible
METAR KOSC 270714Z AUTO 21009G15KT 10SM CLR 10/06 A2971 RMK AO2 T01000057

10-Day Weather Forecast

Almanac

Astronomy

Sep. 27, 2016 Rise Set
Actual Time
Civil Twilight
Nautical Twilight
Astronomical Twilight
Moon
Length of Visible Light
Length of Day
Tomorrow will be .
, % of the Moon is Illuminated

Today's Extremes

State Highs State Lows

Community

WunderPhotos

Upload Photos

1,942,040 photos uploaded!

WunderBlog® & News

Nearby

Air Quality

  Air Quality AQ Index Pollutant
Not available.

Snow Depth

Station Depth Elevation

Earthquake Activity

City Distance Mag. Time & Date
Minimum magnitude displayed is 2.5.

Coastal Water Temperatures

Place Temperature

Stations

Nearby Weather Stations

Station Location Temp. Windchill Dew Point Humidity Wind Precip. Elev Updated Type
                   

Watches & Warnings

There are currently no watches in effect.